Time;durP1;ratioP1;P1;durP2;ratioP2;P2;SDS_P1;SDS_P2;PMS_P1;PMS_P2;Temp;Humidity;BMP_temperature;BMP_pressure;BME280_temperature;BME280_humidity;BME280_pressure;Samples;Min_cycle;Max_cycle;Signal;HPM_P1;HPM_P2
2021/08/13 00:01:21;;;;;;;4.15;3.60;;;24.70;63.30;;;;;;5017997;28;20377;-63
2021/08/13 00:03:48;;;;;;;3.88;3.47;;;24.70;63.20;;;;;;5017882;28;20446;-64
2021/08/13 00:06:13;;;;;;;4.60;3.90;;;24.70;63.30;;;;;;5017840;28;20394;-64
2021/08/13 00:08:39;;;;;;;4.97;3.97;;;24.70;63.30;;;;;;5016856;28;20481;-64
2021/08/13 00:11:05;;;;;;;4.20;3.60;;;24.70;63.30;;;;;;5017916;28;20396;-64
2021/08/13 00:13:31;;;;;;;4.28;3.88;;;24.70;63.20;;;;;;5018013;28;20389;-64
2021/08/13 00:15:57;;;;;;;4.15;3.60;;;24.70;63.30;;;;;;5017759;28;20423;-64
2021/08/13 00:18:23;;;;;;;4.20;3.80;;;24.70;63.30;;;;;;5017370;28;20397;-64
2021/08/13 00:20:48;;;;;;;4.23;3.83;;;24.70;63.30;;;;;;5017816;28;20400;-64
2021/08/13 00:23:14;;;;;;;4.38;3.97;;;24.70;63.30;;;;;;5017807;28;20822;-63
2021/08/13 00:25:40;;;;;;;4.73;4.23;;;24.70;63.30;;;;;;5017693;28;20384;-63
2021/08/13 00:28:05;;;;;;;4.63;3.95;;;24.70;63.30;;;;;;5017691;28;20491;-63
2021/08/13 00:30:33;;;;;;;4.00;3.63;;;24.70;63.30;;;;;;5016281;28;21335;-64
2021/08/13 00:32:59;;;;;;;6.20;4.03;;;24.70;63.40;;;;;;5017556;28;20388;-63
2021/08/13 00:35:24;;;;;;;4.13;3.72;;;24.70;63.30;;;;;;5017664;28;20416;-63
2021/08/13 00:37:50;;;;;;;4.90;4.30;;;24.70;63.40;;;;;;5017596;28;20833;-64
2021/08/13 00:40:16;;;;;;;4.38;3.60;;;24.70;63.30;;;;;;5017891;28;20377;-63
2021/08/13 00:42:42;;;;;;;4.63;4.13;;;24.60;63.20;;;;;;5017492;28;20536;-63
2021/08/13 00:45:08;;;;;;;4.28;3.88;;;24.60;63.20;;;;;;5017440;28;20395;-64
2021/08/13 00:47:34;;;;;;;4.30;3.90;;;24.60;63.30;;;;;;5017820;28;20397;-63
2021/08/13 00:50:00;;;;;;;4.10;3.70;;;24.60;63.30;;;;;;5017500;28;20447;-63
2021/08/13 00:52:25;;;;;;;4.65;4.00;;;24.60;63.20;;;;;;5014701;28;20897;-64
2021/08/13 00:54:52;;;;;;;4.75;4.00;;;24.60;63.30;;;;;;5014400;28;20484;-64
2021/08/13 00:57:18;;;;;;;4.20;3.80;;;24.60;63.30;;;;;;5014340;28;20425;-63
2021/08/13 00:59:45;;;;;;;4.03;3.63;;;24.60;63.40;;;;;;5014309;28;20481;-64
2021/08/13 01:02:10;;;;;;;4.05;3.65;;;24.60;63.40;;;;;;5014251;28;20399;-63
2021/08/13 01:04:37;;;;;;;4.00;3.60;;;24.60;63.20;;;;;;5013750;28;20464;-64
2021/08/13 01:07:03;;;;;;;4.20;3.80;;;24.60;63.90;;;;;;5014185;28;20442;-64
2021/08/13 01:09:29;;;;;;;3.65;3.35;;;24.60;63.20;;;;;;5014319;28;20417;-63
2021/08/13 01:12:01;;;;;;;4.20;3.80;;;24.60;63.30;;;;;;5014093;28;20472;-63
2021/08/13 01:14:47;;;;;;;4.18;3.70;;;24.60;63.30;;;;;;5013563;28;20392;-63
2021/08/13 01:17:15;;;;;;;3.90;3.50;;;24.60;63.30;;;;;;5014023;28;20470;-63
2021/08/13 01:19:59;;;;;;;4.45;4.05;;;24.60;63.20;;;;;;5013788;28;20404;-63
2021/08/13 01:22:52;;;;;;;4.75;3.85;;;24.60;63.30;;;;;;5013338;28;20392;-63
2021/08/13 01:25:21;;;;;;;4.18;3.53;;;24.60;63.30;;;;;;5012492;28;20404;-64
2021/08/13 01:27:50;;;;;;;4.72;3.95;;;24.60;63.30;;;;;;5013587;28;20909;-63
2021/08/13 01:30:18;;;;;;;4.15;3.70;;;24.60;63.20;;;;;;5013753;28;20404;-63
2021/08/13 01:33:08;;;;;;;3.80;3.40;;;24.60;63.30;;;;;;5013286;28;20472;-63
2021/08/13 01:35:40;;;;;;;4.10;3.70;;;24.60;63.30;;;;;;5013371;28;20397;-64
2021/08/13 01:38:13;;;;;;;3.97;3.58;;;24.60;63.30;;;;;;5013355;28;20492;-63
2021/08/13 01:40:42;;;;;;;4.10;3.70;;;24.50;63.30;;;;;;5013057;28;20943;-64
2021/08/13 01:43:10;;;;;;;4.20;3.80;;;24.60;63.30;;;;;;5013513;28;20781;-63
2021/08/13 01:45:37;;;;;;;4.07;3.67;;;24.50;63.30;;;;;;5013386;28;20447;-63
2021/08/13 01:48:04;;;;;;;4.05;3.65;;;24.60;63.30;;;;;;5013481;28;20478;-64
2021/08/13 01:50:30;;;;;;;4.55;3.53;;;24.50;63.30;;;;;;5013149;28;20400;-64
2021/08/13 01:52:58;;;;;;;4.57;3.70;;;24.50;63.20;;;;;;5013216;28;20488;-64
2021/08/13 01:55:24;;;;;;;4.18;3.78;;;24.50;63.20;;;;;;5013225;28;20788;-64
2021/08/13 01:57:50;;;;;;;4.63;3.95;;;24.50;63.30;;;;;;5013246;28;20524;-64
2021/08/13 02:00:18;;;;;;;4.32;3.72;;;24.50;63.30;;;;;;5013106;28;20420;-63
2021/08/13 02:02:44;;;;;;;4.22;3.83;;;24.50;63.30;;;;;;5012646;28;20389;-63
2021/08/13 02:05:12;;;;;;;4.18;3.70;;;24.50;63.30;;;;;;5013117;28;20734;-63
2021/08/13 02:07:40;;;;;;;5.20;3.85;;;24.50;63.30;;;;;;5013077;28;20400;-63
2021/08/13 02:10:08;;;;;;;4.78;3.78;;;24.50;63.30;;;;;;5013044;28;20753;-64
2021/08/13 02:12:35;;;;;;;4.30;3.90;;;24.50;63.20;;;;;;5012493;28;20391;-63
2021/08/13 02:15:01;;;;;;;4.43;3.65;;;24.50;63.20;;;;;;5012910;28;20476;-64
2021/08/13 02:17:29;;;;;;;3.80;3.47;;;24.50;63.30;;;;;;5012859;28;20429;-63
2021/08/13 02:20:10;;;;;;;4.10;3.70;;;24.50;63.30;;;;;;5012716;28;20904;-63
2021/08/13 02:22:36;;;;;;;3.70;3.40;;;24.50;63.20;;;;;;5012508;28;20411;-64
2021/08/13 02:25:03;;;;;;;4.78;3.90;;;24.50;63.30;;;;;;5012798;28;20428;-63
2021/08/13 02:27:30;;;;;;;3.83;3.43;;;24.40;63.20;;;;;;5012437;28;20727;-64
2021/08/13 02:29:56;;;;;;;4.00;3.60;;;24.40;63.20;;;;;;5012420;28;20389;-63
2021/08/13 02:32:24;;;;;;;4.27;3.63;;;24.40;63.30;;;;;;5012636;28;20862;-63
2021/08/13 02:34:51;;;;;;;3.90;3.50;;;24.40;63.20;;;;;;5012290;28;20645;-64
2021/08/13 02:37:29;;;;;;;3.80;3.40;;;24.40;63.20;;;;;;5012224;28;20417;-63
2021/08/13 02:40:01;;;;;;;4.28;3.75;;;24.40;63.20;;;;;;5011851;28;20388;-63
2021/08/13 02:42:33;;;;;;;3.85;3.42;;;24.40;63.20;;;;;;5012024;28;20389;-63
2021/08/13 02:45:00;;;;;;;4.22;3.83;;;24.40;63.20;;;;;;5012497;28;20411;-64
2021/08/13 02:47:29;;;;;;;4.00;3.60;;;24.40;63.20;;;;;;5011131;28;20802;-63
2021/08/13 02:50:07;;;;;;;4.10;3.60;;;24.40;63.20;;;;;;5012490;28;20398;-63
2021/08/13 02:52:55;;;;;;;4.40;3.67;;;24.40;63.30;;;;;;5011723;28;20788;-63
2021/08/13 02:55:25;;;;;;;3.88;3.47;;;24.40;63.20;;;;;;5012152;28;20393;-64
2021/08/13 02:57:55;;;;;;;4.00;3.60;;;24.50;63.20;;;;;;5012185;28;20417;-63
2021/08/13 03:00:20;;;;;;;4.00;3.60;;;24.40;63.30;;;;;;5012107;28;20412;-63
2021/08/13 03:02:50;;;;;;;4.38;3.97;;;24.40;63.20;;;;;;5011602;28;20396;-64
2021/08/13 03:05:19;;;;;;;4.05;3.53;;;24.40;63.20;;;;;;5012020;28;20427;-63
2021/08/13 03:07:44;;;;;;;3.80;3.38;;;24.40;63.20;;;;;;5012042;28;20801;-64
2021/08/13 03:10:10;;;;;;;3.90;3.50;;;24.40;63.20;;;;;;5012028;28;20400;-63
2021/08/13 03:12:40;;;;;;;3.75;3.40;;;24.40;63.20;;;;;;5011487;28;20393;-63
2021/08/13 03:15:07;;;;;;;4.35;3.60;;;24.40;63.50;;;;;;5011538;28;20567;-64
2021/08/13 03:17:33;;;;;;;4.10;3.60;;;24.40;64.50;;;;;;5011488;28;20425;-64
2021/08/13 03:20:01;;;;;;;5.03;4.13;;;24.40;64.40;;;;;;5011721;28;20405;-64
2021/08/13 03:22:28;;;;;;;4.10;3.38;;;24.50;64.80;;;;;;5011620;28;20392;-63
2021/08/13 03:24:54;;;;;;;4.63;3.70;;;24.50;63.50;;;;;;4929744;28;20403;-64
2021/08/13 03:27:20;;;;;;;5.25;3.70;;;24.50;65.00;;;;;;5010522;28;20455;-64
2021/08/13 03:29:46;;;;;;;5.82;3.97;;;24.50;64.50;;;;;;5011590;28;20903;-64
2021/08/13 03:32:11;;;;;;;4.32;3.60;;;24.50;65.10;;;;;;5011746;28;20483;-64
2021/08/13 03:34:37;;;;;;;4.30;3.55;;;24.60;65.10;;;;;;5011220;28;20412;-64
2021/08/13 03:37:04;;;;;;;4.65;3.63;;;24.60;65.40;;;;;;5011439;28;20417;-64
2021/08/13 03:39:29;;;;;;;5.57;3.63;;;24.60;65.90;;;;;;5011623;28;20455;-63
2021/08/13 03:41:56;;;;;;;6.53;3.70;;;24.60;65.90;;;;;;5011506;28;20436;-64
2021/08/13 03:44:21;;;;;;;4.93;3.40;;;24.70;65.80;;;;;;5010332;28;20487;-64
2021/08/13 03:46:47;;;;;;;4.70;3.75;;;24.70;65.70;;;;;;5011015;28;20483;-64
2021/08/13 03:49:13;;;;;;;4.30;3.70;;;24.70;66.50;;;;;;5011540;28;20401;-64
2021/08/13 03:51:38;;;;;;;5.05;4.03;;;24.70;65.20;;;;;;5011458;28;20396;-63
2021/08/13 03:54:08;;;;;;;4.27;3.80;;;24.70;65.20;;;;;;5011591;28;20580;-64
2021/08/13 03:56:33;;;;;;;5.33;3.90;;;24.60;65.00;;;;;;5011112;28;20456;-64
2021/08/13 03:59:00;;;;;;;4.55;3.78;;;24.60;64.60;;;;;;5011496;28;20420;-64
2021/08/13 04:01:26;;;;;;;7.57;4.82;;;24.60;64.80;;;;;;5011406;28;20404;-64
2021/08/13 04:03:51;;;;;;;5.97;4.50;;;24.60;63.90;;;;;;5011422;28;20388;-64
2021/08/13 04:06:17;;;;;;;7.50;4.67;;;24.50;63.70;;;;;;5010164;28;20404;-64
2021/08/13 04:08:43;;;;;;;10.70;4.45;;;24.50;64.00;;;;;;5010986;28;20388;-64
2021/08/13 04:11:08;;;;;;;6.10;4.63;;;24.50;63.40;;;;;;5011362;28;20392;-64
2021/08/13 04:13:34;;;;;;;6.65;4.72;;;24.50;63.20;;;;;;5011427;28;20396;-64
2021/08/13 04:16:00;;;;;;;6.47;4.87;;;24.40;62.70;;;;;;5011318;28;20929;-64
2021/08/13 04:18:26;;;;;;;7.07;5.22;;;24.40;62.60;;;;;;5011152;28;20492;-64
2021/08/13 04:20:51;;;;;;;8.20;4.90;;;24.40;62.30;;;;;;5010802;28;20395;-64
2021/08/13 04:23:17;;;;;;;7.78;5.00;;;24.40;62.20;;;;;;5011360;28;20397;-64
2021/08/13 04:25:42;;;;;;;8.33;4.80;;;24.40;62.40;;;;;;5011214;28;20892;-64
2021/08/13 04:28:08;;;;;;;6.37;4.67;;;24.30;62.20;;;;;;5014097;28;20772;-64
2021/08/13 04:30:34;;;;;;;7.90;5.10;;;24.30;62.30;;;;;;5014690;28;20396;-64
2021/08/13 04:32:59;;;;;;;5.90;4.40;;;24.30;62.20;;;;;;5013487;28;20423;-64
2021/08/13 04:35:25;;;;;;;7.85;4.75;;;24.30;62.20;;;;;;5014915;28;20419;-64
2021/08/13 04:37:51;;;;;;;6.93;5.00;;;24.30;62.20;;;;;;5015020;28;20419;-64
2021/08/13 04:40:17;;;;;;;6.47;4.82;;;24.30;62.20;;;;;;5014621;28;20872;-64
2021/08/13 04:42:42;;;;;;;6.37;4.80;;;24.30;62.30;;;;;;5014288;28;20912;-64
2021/08/13 04:45:08;;;;;;;5.75;4.40;;;24.30;62.50;;;;;;5014739;28;20392;-64
2021/08/13 04:47:34;;;;;;;7.28;4.70;;;24.20;62.30;;;;;;5014641;28;20878;-65
2021/08/13 04:50:00;;;;;;;8.87;4.50;;;24.20;62.10;;;;;;5014631;28;20438;-64
2021/08/13 04:52:25;;;;;;;8.80;4.80;;;24.10;62.30;;;;;;5014596;28;20393;-64
2021/08/13 04:54:51;;;;;;;7.45;4.75;;;24.10;62.50;;;;;;5014160;28;20424;-64
2021/08/13 04:57:17;;;;;;;7.17;4.90;;;24.10;62.90;;;;;;5014413;28;20429;-64
2021/08/13 04:59:42;;;;;;;7.45;5.07;;;24.10;63.00;;;;;;5014426;28;20754;-64
2021/08/13 05:02:08;;;;;;;7.63;4.90;;;24.10;63.80;;;;;;5014420;28;20393;-64
2021/08/13 05:04:34;;;;;;;7.43;4.57;;;24.10;64.20;;;;;;5014159;28;20395;-64
2021/08/13 05:07:00;;;;;;;10.07;5.43;;;24.10;64.10;;;;;;5013041;28;20408;-64
2021/08/13 05:09:25;;;;;;;6.95;5.10;;;24.10;64.20;;;;;;5014275;28;20388;-64
2021/08/13 05:11:51;;;;;;;10.17;5.10;;;24.10;64.30;;;;;;5012971;28;20401;-64
2021/08/13 05:14:16;;;;;;;7.53;5.07;;;24.10;64.70;;;;;;5014197;28;20377;-64
2021/08/13 05:16:42;;;;;;;9.60;5.50;;;24.00;65.00;;;;;;5012258;28;20496;-64
2021/08/13 05:19:08;;;;;;;7.07;5.07;;;24.00;64.40;;;;;;5013965;28;20423;-64
2021/08/13 05:21:40;;;;;;;6.80;5.05;;;24.00;64.50;;;;;;5014103;28;20391;-64
2021/08/13 05:24:06;;;;;;;7.20;5.28;;;24.00;64.40;;;;;;5013353;28;20405;-65
2021/08/13 05:26:32;;;;;;;6.15;4.95;;;24.00;64.40;;;;;;5013576;28;20874;-64
2021/08/13 05:28:58;;;;;;;7.28;4.95;;;24.00;64.60;;;;;;5013613;28;20823;-64
2021/08/13 05:31:24;;;;;;;6.50;4.67;;;24.00;64.60;;;;;;5013858;28;20451;-64
2021/08/13 05:33:49;;;;;;;7.15;4.88;;;23.90;65.10;;;;;;5013832;28;20940;-64
2021/08/13 05:36:16;;;;;;;6.33;4.80;;;24.00;64.70;;;;;;5013717;28;20693;-64
2021/08/13 05:38:43;;;;;;;7.38;4.90;;;24.00;64.80;;;;;;5012502;28;20878;-64
2021/08/13 05:41:08;;;;;;;7.55;4.43;;;24.00;64.60;;;;;;5013451;28;20409;-64
2021/08/13 05:43:34;;;;;;;7.03;4.90;;;24.00;64.50;;;;;;5013910;28;20415;-64
2021/08/13 05:46:00;;;;;;;8.10;5.33;;;24.10;64.40;;;;;;5013528;28;20433;-64
2021/08/13 05:48:26;;;;;;;5.15;4.53;;;24.10;64.30;;;;;;5013503;28;20423;-64
2021/08/13 05:50:51;;;;;;;6.30;4.90;;;24.10;64.40;;;;;;5013105;28;20389;-64
2021/08/13 05:53:17;;;;;;;6.53;4.68;;;24.10;64.30;;;;;;5013446;28;20877;-64
2021/08/13 05:55:42;;;;;;;5.40;4.30;;;24.10;64.40;;;;;;5013289;28;20468;-64
2021/08/13 05:58:08;;;;;;;4.90;4.30;;;24.10;64.90;;;;;;5013353;28;20488;-65
2021/08/13 06:00:34;;;;;;;5.30;4.35;;;24.10;64.40;;;;;;5013018;28;20420;-64
2021/08/13 06:03:02;;;;;;;6.32;4.68;;;24.10;64.50;;;;;;5013048;28;20409;-64
2021/08/13 06:05:27;;;;;;;5.15;4.20;;;24.10;64.40;;;;;;5013250;28;20385;-65
2021/08/13 06:07:53;;;;;;;6.57;4.43;;;24.10;64.40;;;;;;5013141;28;20381;-64
2021/08/13 06:10:20;;;;;;;4.53;4.05;;;24.10;64.40;;;;;;5013084;28;20391;-65
2021/08/13 06:12:46;;;;;;;5.88;4.00;;;24.10;64.50;;;;;;5012555;28;20400;-64
2021/08/13 06:15:13;;;;;;;6.45;4.53;;;24.10;64.30;;;;;;5013025;28;20392;-64
2021/08/13 06:17:40;;;;;;;5.78;4.30;;;24.20;64.40;;;;;;5012785;28;20424;-64
2021/08/13 06:20:07;;;;;;;5.75;4.40;;;24.10;64.30;;;;;;5012833;28;20499;-64
2021/08/13 06:22:33;;;;;;;5.85;4.47;;;24.20;64.20;;;;;;5012729;28;20428;-65
2021/08/13 06:24:58;;;;;;;5.18;4.13;;;24.20;64.30;;;;;;5012363;28;20416;-64
2021/08/13 06:27:24;;;;;;;5.43;3.80;;;24.20;64.40;;;;;;5012814;28;20488;-64
2021/08/13 06:29:50;;;;;;;6.10;4.40;;;24.20;64.20;;;;;;5012663;28;20442;-64
2021/08/13 06:32:15;;;;;;;6.07;4.50;;;24.20;64.70;;;;;;5012789;28;20934;-64
2021/08/13 06:34:41;;;;;;;7.20;4.90;;;24.20;64.70;;;;;;5012292;28;20900;-64
2021/08/13 06:37:07;;;;;;;7.22;4.68;;;24.20;64.70;;;;;;5012629;28;20915;-64
2021/08/13 06:39:32;;;;;;;7.40;4.80;;;24.30;64.80;;;;;;5012632;28;20557;-64
2021/08/13 06:41:58;;;;;;;7.00;4.82;;;24.30;64.90;;;;;;5012341;28;20384;-64
2021/08/13 06:44:23;;;;;;;6.80;5.03;;;24.30;64.90;;;;;;5012628;28;20487;-64
2021/08/13 06:46:49;;;;;;;8.40;5.27;;;24.30;64.80;;;;;;5012021;28;20412;-64
2021/08/13 06:49:15;;;;;;;5.97;4.55;;;24.30;64.80;;;;;;5012490;28;20396;-64
2021/08/13 06:51:40;;;;;;;6.43;4.60;;;24.30;64.80;;;;;;5011488;28;20456;-64
2021/08/13 06:54:06;;;;;;;6.10;4.45;;;24.30;64.80;;;;;;5012364;28;20407;-64
2021/08/13 06:56:32;;;;;;;7.03;4.90;;;24.30;64.70;;;;;;5012197;28;20464;-64
2021/08/13 06:58:57;;;;;;;7.07;4.85;;;24.40;64.80;;;;;;5011829;28;20876;-65
2021/08/13 07:01:23;;;;;;;6.97;4.47;;;24.40;64.60;;;;;;5012270;28;20424;-64
2021/08/13 07:03:49;;;;;;;6.30;4.67;;;24.40;64.70;;;;;;5012256;28;20384;-65
2021/08/13 07:06:14;;;;;;;6.85;5.00;;;24.40;65.30;;;;;;5012223;28;20393;-64
2021/08/13 07:08:40;;;;;;;7.10;4.50;;;24.40;64.70;;;;;;5011914;28;20425;-64
2021/08/13 07:11:06;;;;;;;6.10;4.50;;;24.40;64.70;;;;;;5011833;28;20439;-64
2021/08/13 07:13:32;;;;;;;5.80;4.37;;;24.40;64.60;;;;;;5012047;28;20480;-64
2021/08/13 07:15:57;;;;;;;6.90;4.68;;;24.40;64.50;;;;;;5011988;28;20416;-64
2021/08/13 07:18:23;;;;;;;5.33;4.10;;;24.40;64.50;;;;;;5011874;28;20427;-64
2021/08/13 07:20:48;;;;;;;5.57;4.30;;;24.40;64.60;;;;;;5011969;28;20377;-64
2021/08/13 07:23:14;;;;;;;5.53;4.17;;;24.40;64.50;;;;;;5011911;28;20397;-64
2021/08/13 07:25:40;;;;;;;5.10;4.17;;;24.40;64.50;;;;;;5011908;28;20376;-64
2021/08/13 07:28:05;;;;;;;4.97;4.45;;;24.50;64.50;;;;;;5011872;28;20397;-64
2021/08/13 07:30:31;;;;;;;6.37;4.50;;;24.50;64.50;;;;;;5011878;28;20381;-64
2021/08/13 07:32:57;;;;;;;5.53;4.18;;;24.50;64.50;;;;;;5011261;28;20408;-65
2021/08/13 07:35:22;;;;;;;5.70;4.33;;;24.50;64.50;;;;;;5011747;28;20386;-65
2021/08/13 07:37:48;;;;;;;5.70;4.38;;;24.50;64.40;;;;;;5011540;28;20443;-64
2021/08/13 07:40:14;;;;;;;4.97;4.07;;;24.50;64.30;;;;;;5011784;28;20388;-64
2021/08/13 07:42:41;;;;;;;4.97;3.93;;;24.50;64.30;;;;;;5011486;28;20480;-64
2021/08/13 07:45:08;;;;;;;5.05;4.03;;;24.50;64.20;;;;;;5011461;28;20388;-64
2021/08/13 07:47:33;;;;;;;4.75;4.00;;;24.50;64.20;;;;;;5005299;28;20409;-65
2021/08/13 07:49:59;;;;;;;4.93;3.93;;;24.60;64.30;;;;;;4997029;28;20391;-65
2021/08/13 07:52:25;;;;;;;6.05;4.22;;;24.50;64.20;;;;;;4992016;28;20398;-65
2021/08/13 07:54:51;;;;;;;4.88;4.38;;;24.60;64.30;;;;;;4991412;28;20398;-64
2021/08/13 07:57:18;;;;;;;4.90;4.40;;;24.60;64.20;;;;;;4991395;28;20927;-64
2021/08/13 07:59:44;;;;;;;4.37;3.70;;;24.50;64.10;;;;;;4991383;28;20394;-64
2021/08/13 08:02:10;;;;;;;5.40;4.30;;;24.60;64.20;;;;;;4993202;28;20401;-64
2021/08/13 08:04:37;;;;;;;4.68;3.78;;;24.50;64.00;;;;;;4995800;28;20391;-64
2021/08/13 08:07:03;;;;;;;4.70;3.95;;;24.50;64.10;;;;;;4995430;28;20510;-65
2021/08/13 08:09:29;;;;;;;4.97;3.70;;;24.60;64.20;;;;;;4995693;28;20870;-64
2021/08/13 08:11:55;;;;;;;4.45;3.90;;;24.60;64.10;;;;;;4995741;28;20394;-65
2021/08/13 08:14:21;;;;;;;5.43;4.05;;;24.60;64.10;;;;;;4995744;28;20382;-64
2021/08/13 08:16:48;;;;;;;4.35;3.65;;;24.50;64.10;;;;;;4994961;28;20414;-64
2021/08/13 08:19:14;;;;;;;4.72;4.00;;;24.60;64.10;;;;;;4995598;28;20486;-64
2021/08/13 08:21:39;;;;;;;4.43;3.60;;;24.50;64.00;;;;;;4995394;28;20961;-64
2021/08/13 08:24:05;;;;;;;4.20;3.67;;;24.50;64.50;;;;;;4995534;28;20811;-64
2021/08/13 08:26:31;;;;;;;4.18;3.75;;;24.50;64.00;;;;;;4995305;28;20394;-64
2021/08/13 08:28:57;;;;;;;3.90;3.50;;;24.50;64.00;;;;;;4994895;28;20394;-64
2021/08/13 08:31:22;;;;;;;4.13;3.60;;;24.60;64.00;;;;;;4995429;28;20390;-64
2021/08/13 08:33:48;;;;;;;4.47;3.63;;;24.50;64.00;;;;;;4995248;28;20406;-64
2021/08/13 08:36:14;;;;;;;4.45;3.47;;;24.50;64.00;;;;;;4995137;28;20811;-64
2021/08/13 08:38:40;;;;;;;4.30;3.90;;;24.50;63.90;;;;;;4995155;28;20390;-64
2021/08/13 08:41:07;;;;;;;4.30;3.70;;;24.50;63.90;;;;;;4994709;28;20382;-64
2021/08/13 08:43:33;;;;;;;4.47;3.88;;;24.50;63.90;;;;;;4994809;28;20459;-64
2021/08/13 08:46:00;;;;;;;4.73;3.90;;;24.50;64.00;;;;;;4995091;28;20387;-64
2021/08/13 08:48:34;;;;;;;4.00;3.60;;;24.50;63.90;;;;;;4995043;28;20403;-64
2021/08/13 08:51:01;;;;;;;4.18;3.53;;;24.50;64.00;;;;;;4994593;28;20395;-64
2021/08/13 08:53:28;;;;;;;4.20;3.65;;;24.50;63.80;;;;;;4994931;28;20402;-64
2021/08/13 08:55:55;;;;;;;4.38;3.67;;;24.50;63.90;;;;;;4994739;28;20389;-64
2021/08/13 08:58:22;;;;;;;4.57;3.40;;;24.50;63.80;;;;;;4994665;28;20476;-64
2021/08/13 09:00:48;;;;;;;4.40;3.55;;;24.50;63.90;;;;;;4993293;28;20402;-64
2021/08/13 09:03:16;;;;;;;3.97;3.58;;;24.50;63.80;;;;;;4994730;28;20891;-64
2021/08/13 09:05:43;;;;;;;4.20;3.50;;;24.50;63.80;;;;;;4994719;28;20395;-64
2021/08/13 09:08:09;;;;;;;4.93;3.67;;;24.50;63.70;;;;;;4994691;28;20807;-64
2021/08/13 09:10:35;;;;;;;4.60;4.03;;;24.60;63.70;;;;;;4994690;28;20442;-64
2021/08/13 09:13:05;;;;;;;3.87;3.33;;;24.60;63.70;;;;;;4993439;28;20391;-64
2021/08/13 09:15:32;;;;;;;4.23;3.60;;;24.60;63.70;;;;;;4993850;28;20394;-65
2021/08/13 09:18:10;;;;;;;4.50;3.70;;;24.60;63.70;;;;;;4994190;28;20484;-64
2021/08/13 09:20:38;;;;;;;4.35;3.70;;;24.60;63.60;;;;;;4994280;28;20390;-64
2021/08/13 09:23:04;;;;;;;4.32;3.50;;;24.60;63.60;;;;;;4993914;28;20481;-64
2021/08/13 09:25:29;;;;;;;4.13;3.53;;;24.60;63.60;;;;;;4994349;28;20469;-64
2021/08/13 09:27:55;;;;;;;4.03;3.63;;;24.60;63.60;;;;;;4994173;28;20401;-64
2021/08/13 09:30:21;;;;;;;4.33;3.50;;;24.60;63.60;;;;;;4994306;28;20799;-64
2021/08/13 09:33:07;;;;;;;3.90;3.50;;;24.60;63.50;;;;;;4993965;28;20390;-64
2021/08/13 09:35:42;;;;;;;3.92;3.50;;;24.60;63.60;;;;;;4994486;28;20390;-64
2021/08/13 09:38:14;;;;;;;3.83;3.15;;;24.60;63.50;;;;;;4994088;28;20481;-65
2021/08/13 09:40:45;;;;;;;5.27;3.70;;;24.60;63.40;;;;;;4993870;28;20478;-65
2021/08/13 09:43:11;;;;;;;3.65;3.28;;;24.60;63.20;;;;;;4993822;28;20404;-65
2021/08/13 09:45:37;;;;;;;4.20;3.43;;;24.60;63.60;;;;;;4993976;28;20391;-65
2021/08/13 09:48:03;;;;;;;4.60;3.78;;;24.60;63.60;;;;;;4994017;28;20743;-65
2021/08/13 09:50:43;;;;;;;4.40;3.75;;;24.60;63.60;;;;;;4993793;28;20398;-65
2021/08/13 09:53:14;;;;;;;4.30;3.78;;;24.60;63.80;;;;;;4993481;28;20433;-65
2021/08/13 09:55:44;;;;;;;4.72;3.58;;;24.60;63.80;;;;;;4993708;28;20456;-65
2021/08/13 09:58:11;;;;;;;4.07;3.65;;;24.60;64.30;;;;;;4993984;28;20488;-65
2021/08/13 10:00:55;;;;;;;4.68;3.80;;;24.60;63.60;;;;;;4993604;28;20849;-65
2021/08/13 10:03:21;;;;;;;4.65;3.85;;;24.60;63.80;;;;;;4993860;28;20453;-65
2021/08/13 10:06:02;;;;;;;4.27;3.50;;;24.60;63.40;;;;;;4993694;28;20493;-65
2021/08/13 10:08:42;;;;;;;4.30;3.65;;;24.60;63.40;;;;;;4993408;28;20390;-65
2021/08/13 10:11:13;;;;;;;4.38;3.58;;;24.60;63.50;;;;;;4993247;28;20387;-65
2021/08/13 10:13:42;;;;;;;4.47;3.70;;;24.60;63.50;;;;;;4993372;28;20405;-65
2021/08/13 10:16:08;;;;;;;4.28;3.53;;;24.60;63.50;;;;;;4993259;28;20506;-65
2021/08/13 10:18:36;;;;;;;4.77;3.60;;;24.60;63.40;;;;;;4993168;28;20423;-65
2021/08/13 10:21:02;;;;;;;4.25;3.55;;;24.60;63.50;;;;;;4993154;28;20397;-65
2021/08/13 10:23:28;;;;;;;4.40;3.47;;;24.60;63.60;;;;;;4993180;28;20394;-65
2021/08/13 10:25:56;;;;;;;4.13;3.65;;;24.60;63.40;;;;;;4993016;28;20394;-65
2021/08/13 10:28:22;;;;;;;3.83;3.40;;;24.60;63.40;;;;;;4993066;28;20433;-65
2021/08/13 10:30:48;;;;;;;5.40;3.50;;;24.60;63.40;;;;;;4992283;28;20791;-65
2021/08/13 10:33:14;;;;;;;3.73;3.40;;;24.60;63.40;;;;;;4992598;28;20391;-65
2021/08/13 10:36:08;;;;;;;4.78;3.55;;;24.60;63.30;;;;;;4993081;28;20437;-65
2021/08/13 10:38:38;;;;;;;4.95;3.80;;;24.60;63.40;;;;;;4992521;28;20446;-65
2021/08/13 10:41:06;;;;;;;5.20;3.90;;;24.60;63.30;;;;;;4992361;28;20378;-65
2021/08/13 10:43:36;;;;;;;4.60;3.80;;;24.60;63.40;;;;;;4992737;28;20441;-65
2021/08/13 10:46:06;;;;;;;4.13;3.70;;;24.70;63.60;;;;;;4992763;28;20382;-65
2021/08/13 10:48:34;;;;;;;5.13;3.97;;;24.60;63.60;;;;;;4992890;28;20406;-65
2021/08/13 10:51:01;;;;;;;5.88;4.30;;;24.70;63.70;;;;;;4991940;28;20390;-65
2021/08/13 10:53:35;;;;;;;5.60;4.03;;;24.70;63.70;;;;;;4992713;28;20430;-65
2021/08/13 10:56:05;;;;;;;8.43;4.50;;;24.70;63.60;;;;;;4992628;28;20445;-64
2021/08/13 10:58:37;;;;;;;5.32;3.90;;;24.70;63.70;;;;;;4992599;28;20775;-64
2021/08/13 11:01:12;;;;;;;5.57;4.32;;;24.70;64.00;;;;;;4992107;28;20469;-65
2021/08/13 11:03:40;;;;;;;4.93;4.18;;;24.70;64.60;;;;;;4992518;28;20420;-65
2021/08/13 11:06:07;;;;;;;5.60;4.07;;;24.80;65.00;;;;;;4992376;28;20418;-65
2021/08/13 11:08:41;;;;;;;4.93;4.22;;;24.80;64.70;;;;;;5006343;28;20920;-65
2021/08/13 11:11:08;;;;;;;6.22;4.70;;;24.80;64.70;;;;;;5006151;28;20405;-65
2021/08/13 11:13:42;;;;;;;5.70;4.30;;;24.80;64.80;;;;;;5008396;28;20409;-65
2021/08/13 11:16:33;;;;;;;5.43;4.65;;;24.80;64.60;;;;;;5011012;28;20452;-65
2021/08/13 11:19:06;;;;;;;5.75;4.30;;;24.80;64.30;;;;;;5008842;28;20400;-65
2021/08/13 11:21:46;;;;;;;5.93;4.30;;;24.80;64.30;;;;;;5011290;28;20817;-65
2021/08/13 11:24:13;;;;;;;5.10;4.60;;;24.90;64.40;;;;;;5011499;28;20765;-65
2021/08/13 11:26:47;;;;;;;5.30;4.40;;;24.90;64.20;;;;;;5011364;28;20416;-65
2021/08/13 11:29:33;;;;;;;5.15;4.50;;;24.90;64.20;;;;;;5010848;28;20415;-65
2021/08/13 11:31:58;;;;;;;7.32;4.90;;;24.90;64.10;;;;;;4992246;28;20488;-64
2021/08/13 11:34:50;;;;;;;5.20;4.27;;;24.90;64.10;;;;;;4992203;28;20883;-64
2021/08/13 11:37:30;;;;;;;5.80;4.60;;;24.90;64.50;;;;;;4991280;28;20418;-64
2021/08/13 11:40:14;;;;;;;5.85;5.03;;;25.00;64.60;;;;;;4999100;28;20424;-65
2021/08/13 11:42:59;;;;;;;5.75;4.70;;;25.00;64.90;;;;;;5009654;28;20757;-65
2021/08/13 11:45:40;;;;;;;8.60;4.80;;;25.00;64.60;;;;;;5009780;28;20415;-65
2021/08/13 11:48:07;;;;;;;7.70;4.60;;;25.00;65.00;;;;;;5009620;28;20409;-67
2021/08/13 11:50:33;;;;;;;6.30;4.53;;;25.00;65.20;;;;;;5009389;28;20401;-65
2021/08/13 11:52:58;;;;;;;5.40;4.90;;;25.00;66.00;;;;;;5010806;28;20491;-65
2021/08/13 11:55:29;;;;;;;6.83;4.70;;;25.00;65.10;;;;;;5011612;28;20471;-65
2021/08/13 11:58:00;;;;;;;8.85;5.22;;;25.00;65.10;;;;;;5011435;28;20412;-65
2021/08/13 12:00:29;;;;;;;6.13;4.93;;;25.00;65.60;;;;;;5011639;28;20381;-65
2021/08/13 12:03:09;;;;;;;6.20;4.60;;;25.00;65.50;;;;;;5008064;28;20889;-65
2021/08/13 12:05:39;;;;;;;6.07;4.82;;;25.00;65.10;;;;;;5000381;28;20872;-65
2021/08/13 12:08:09;;;;;;;4.80;4.30;;;25.00;65.20;;;;;;5007524;28;20385;-65
2021/08/13 12:10:36;;;;;;;5.13;4.47;;;25.00;65.10;;;;;;5005826;28;20399;-65
2021/08/13 12:13:07;;;;;;;5.75;4.53;;;25.00;65.00;;;;;;5009835;28;20432;-65
2021/08/13 12:15:35;;;;;;;6.18;4.60;;;25.10;65.10;;;;;;5010657;28;20397;-65
2021/08/13 12:18:04;;;;;;;5.20;4.65;;;25.10;65.00;;;;;;5011042;28;20424;-65
2021/08/13 12:20:31;;;;;;;5.32;4.65;;;25.10;65.00;;;;;;5011209;28;20388;-65
2021/08/13 12:23:02;;;;;;;5.35;4.47;;;25.10;64.90;;;;;;5011002;28;20401;-65
2021/08/13 12:25:42;;;;;;;5.93;4.57;;;25.10;64.90;;;;;;5011404;28;20412;-64
2021/08/13 12:28:11;;;;;;;4.68;4.18;;;25.10;64.70;;;;;;5011219;28;20496;-65
2021/08/13 12:30:37;;;;;;;4.78;4.10;;;25.10;64.70;;;;;;5011048;28;20923;-65
2021/08/13 12:33:04;;;;;;;5.73;4.50;;;25.10;64.50;;;;;;5010937;28;20424;-65
2021/08/13 12:35:42;;;;;;;6.97;4.88;;;25.10;64.50;;;;;;5011286;28;20399;-65
2021/08/13 12:38:09;;;;;;;5.38;4.50;;;25.10;64.40;;;;;;5011053;28;20412;-65
2021/08/13 12:40:42;;;;;;;4.72;4.20;;;25.10;64.40;;;;;;5010948;28;20389;-65
2021/08/13 12:43:10;;;;;;;4.75;4.13;;;25.10;64.20;;;;;;5009259;28;20405;-65
2021/08/13 12:45:36;;;;;;;4.88;4.38;;;25.10;64.10;;;;;;5010731;28;20533;-65
2021/08/13 12:48:02;;;;;;;5.00;3.95;;;25.10;64.10;;;;;;5012062;28;20893;-65
2021/08/13 12:50:28;;;;;;;4.70;4.25;;;25.10;64.00;;;;;;5013195;28;20397;-65